Aktuální počasí v Česku a ve světě - METAR

Seznam meteostanic umístěných nejčasteji na letišti v ČR a ve světě

Vyhledat místa podle abecedy:
A B C D E F G H I J K L M N O P Q R S T U V W X Y Z

Filtrovat:

ID stanice:
a/nebo
Název místa (fulltext):
 
Místo (ID)Naposledy načteno 
Antwerp (EBAW) 21.04.2021 23:50 UTC Zobrazit METAR
EBAW 212350Z AUTO 04005KT CAVOK 05/00 Q1024
Apia (NSFA) 22.04.2021 00:00 UTC Zobrazit METAR
NSFA 220000Z 05009KT 360V080 9999 FEW022 SCT050 OVC150 29/27 Q1010
Aruba I (TNCA) 22.04.2021 00:00 UTC Zobrazit METAR
TNCA 220000Z 08017KT 9999 FEW018 27/22 Q1012 NOSIG
Ascension I. (FHAW) 18.04.2021 11:50 UTC Zobrazit METAR
FHAW 181150Z 14016KT 9999 FEW023 29/21 Q1013 NOSIG RMK BLU BLU
Ashgabat (UTAA) 22.04.2021 00:00 UTC Zobrazit METAR
UTAA 220000Z 10006KT 9999 NSC 17/01 Q1019 R88/CLRD70 NOSIG
Asmara (HHAS) 03.02.2015 17:00 UTC Zobrazit METAR
HHAS 031700Z 27004KT CAVOK 15/06 Q1028 NOSIG
Astana (UACC) Zatím nenačteno  
Astrakhan (URWA) Zatím nenačteno  
Asuncion (SGAS) 22.04.2021 00:00 UTC Zobrazit METAR
SGAS 220000Z 11006KT CAVOK 25/18 Q1013
Athens (LGAV) 21.04.2021 23:50 UTC Zobrazit METAR
LGAV 212350Z VRB01KT 9999 FEW030 11/05 Q1021 NOSIG
Baghdad (ORBS) 06.06.2012 04:00 UTC  
Bagram (KQSA) 11.05.2016 15:58 UTC Zobrazit METAR
KQSA 111558Z VRB06KT 9999 BKN140 21/09 A3000 RMK AO2A SLP070 T02080091 $
Bahrain (OBBI) 22.04.2021 00:00 UTC Zobrazit METAR
OBBI 220000Z 10005KT CAVOK 25/18 Q1010 NOSIG
Baku (UBBB) 21.04.2021 22:00 UTC Zobrazit METAR
UBBB 212200Z 34018KT CAVOK 15/10 Q1018 R88/CLRD// NOSIG
Bamako (GABS) 22.04.2021 00:00 UTC Zobrazit METAR
GABS 220000Z 23004KT 9999 FEW030 32/20 Q1012 NOSIG
Bandar Seri Begawan (WBSB) 22.04.2021 00:00 UTC Zobrazit METAR
WBSB 220000Z 17003KT 9999 FEW014 BKN280 27/25 Q1011 NOSIG
Bangkok (VTBD) 22.04.2021 00:00 UTC Zobrazit METAR
VTBD 220000Z 05002KT 7000 FEW020 27/26 Q1009 NOSIG
Bangui (FEFF) 22.04.2021 00:00 UTC Zobrazit METAR
FEFF 220000Z 00000KT CAVOK 29/23 Q1009 NOSIG
Banja Luka (LQBK) 22.04.2021 00:00 UTC Zobrazit METAR
LQBK 220000Z 21004KT CAVOK 06/03 Q1019 NOSIG
Banjul (GBYD) 22.04.2021 00:00 UTC Zobrazit METAR
GBYD 220000Z 34011KT 9999 SCT011 FEW220 21/19 Q1011
Barbados (TBPB) 22.04.2021 00:00 UTC Zobrazit METAR
TBPB 220000Z 10015KT 9999 BKN018 26/19 Q1015 NOSIG
Barcelona (LEBL) 22.04.2021 00:00 UTC Zobrazit METAR
LEBL 220000Z 05010KT 9999 FEW014 SCT016 BKN022 11/09 Q1016 NOSIG
Bari (LIBD) 21.04.2021 23:50 UTC Zobrazit METAR
LIBD 212350Z 11005KT CAVOK 11/09 Q1019
Basle-Mulhouse (LFSB) 22.04.2021 00:00 UTC Zobrazit METAR
LFSB 220000Z AUTO 21001KT CAVOK 06/02 Q1018 NOSIG
Basse-Terre (TFFB) Zatím nenačteno  
Basseterre (TKPK) 21.04.2021 22:00 UTC Zobrazit METAR
TKPK 212200Z 08013KT 9999 FEW020 26/23 Q1016
Beijing (ZBAA) Zatím nenačteno  
Beirut (OLBA) 22.04.2021 00:00 UTC Zobrazit METAR
OLBA 220000Z 14004KT 8000 NSC 17/13 Q1020 NOSIG
Belfast (EGAA) 21.04.2021 23:50 UTC Zobrazit METAR
EGAA 212350Z 10005KT CAVOK 04/02 Q1024
Belgrade (LYBE) 22.04.2021 00:00 UTC Zobrazit METAR
LYBE 220000Z 20008KT CAVOK 11/04 Q1018 NOSIG
Belize City (MZBZ) 22.04.2021 00:00 UTC Zobrazit METAR
MZBZ 220000Z 10006KT 9999 FEW025 28/25 A2989 Q1012 NOSIG
Bergen (ENBR) 21.04.2021 23:50 UTC Zobrazit METAR
ENBR 212350Z 01006KT 9999 FEW031 BKN049 04/M01 Q1019 RMK WIND 1200FT 32017KT
Berlin (EDDT) 09.11.2020 06:50 UTC Zobrazit METAR
EDDT 090650Z 09006KT 050V120 3000 BR OVC003 06/05 Q1027
Bermuda Is (TXKF) 21.04.2021 23:55 UTC Zobrazit METAR
TXKF 212355Z 21011KT 8000 -RA SCT084 OVC120 20/18 Q1015
Bern (LSZB) 21.04.2021 23:50 UTC Zobrazit METAR
LSZB 212350Z AUTO VRB01KT 9999 FEW100 03/03 Q1018
Billund (EKBI) 21.04.2021 23:50 UTC Zobrazit METAR
EKBI 212350Z AUTO 30014KT 9999 SCT020/// 04/01 Q1015
Birmingham (EGBB) 21.04.2021 23:50 UTC Zobrazit METAR
EGBB 212350Z 08006KT CAVOK 04/M01 Q1026
Bishkek (UAFM) Zatím nenačteno  
Bissau (GGOV) 21.04.2021 23:00 UTC Zobrazit METAR
GGOV 212300Z 30004KT 260V340 CAVOK 23/20 Q1011 NOSIG
Bogota (SKBO) 22.04.2021 00:00 UTC Zobrazit METAR
SKBO 220000Z 30005KT 9999 FEW020 SCT200 14/09 Q1026 NOSIG RMK A3030
Bologna (LIPE) 22.04.2021 00:20 UTC Zobrazit METAR
LIPE 220020Z VRB02KT CAVOK 10/07 Q1018
Bordeaux (LFBD) 22.04.2021 00:00 UTC Zobrazit METAR
LFBD 220000Z AUTO 11008KT CAVOK 13/09 Q1014 NOSIG
Bornholm (EKRN) 21.04.2021 23:50 UTC Zobrazit METAR
EKRN 212350Z AUTO 28015KT 9999 BKN042/// BKN120/// 06/02 Q1009
Brasilia (SBBR) 22.04.2021 00:00 UTC Zobrazit METAR
SBBR 220000Z 24003KT CAVOK 21/12 Q1018
Bratislava (LZIB) 22.04.2021 00:00 UTC Zobrazit METAR
LZIB 220000Z 32002KT CAVOK 07/04 Q1015
Brazzaville (FCBB) 22.04.2021 00:00 UTC Zobrazit METAR
FCBB 220000Z 00000KT 8000 NSC 26/22 Q1011 NOSIG
Bremen (EDDW) 21.04.2021 23:50 UTC Zobrazit METAR
EDDW 212350Z 29007KT 9999 SCT038 04/M01 Q1020
Brest (UMBB) Zatím nenačteno  
Brest (LFRB) 22.04.2021 00:00 UTC Zobrazit METAR
LFRB 220000Z AUTO 06008KT 7000 NSC 09/06 Q1018 TEMPO 3000 BR
Brno (LKTB) 22.04.2021 00:00 UTC Zobrazit METAR
LKTB 220000Z 24005KT CAVOK 08/04 Q1014 NOSIG
Předchozí 1 2 3 4 ... 9 Další
Reklama

Reklama


Newslettter

Počasí na Váš email

Emaily jsou bez reklamy a bez spamu



Odhlásit newsletter




Další české internetové stránky (nejen) o počasí najdete v katalogu TOPlist - weby o počasí nebo vyhledejte na internetu, co jste tu na Počasí Slunečno Slunečnu zatím nenašli:
Přidat mezzi oblíbené stránkyPřidat Slunečno.cz do oblíbených | Nastavit jako HOMEPAGENastavit Slunečno.cz jako HOMEPAGE

Posunout stránku nahoru Posunout stránku nahoru Posunout stránku nahoru
Reklama